Time;durP1;ratioP1;P1;durP2;ratioP2;P2;SDS_P1;SDS_P2;PMS_P1;PMS_P2;Temp;Humidity;BMP_temperature;BMP_pressure;BME280_temperature;BME280_humidity;BME280_pressure;Samples;Min_cycle;Max_cycle;Signal;HPM_P1;HPM_P2
2023/01/05 00:01:30;;;;;;;;;;;5.20;95.80;;;;;;5054028;28;19991;-86
2023/01/05 00:03:55;;;;;;;;;;;5.20;95.70;;;;;;5053320;28;20396;-86
2023/01/05 00:06:21;;;;;;;;;;;5.20;95.60;;;;;;5054132;28;19948;-86
2023/01/05 00:08:46;;;;;;;;;;;5.10;95.60;;;;;;5073976;28;20435;-86
2023/01/05 00:22:32;;;;;;;;;;;5.10;95.60;;;;;;5062418;28;20347;-87
2023/01/05 00:24:58;;;;;;;;;;;5.20;95.70;;;;;;5055769;28;19950;-87
2023/01/05 00:27:24;;;;;;;;;;;5.20;95.50;;;;;;5064593;28;19945;-87
2023/01/05 00:29:49;;;;;;;;;;;5.20;95.50;;;;;;5057688;28;20358;-87
2023/01/05 00:32:15;;;;;;;;;;;5.20;95.40;;;;;;5071971;28;19940;-87
2023/01/05 00:34:40;;;;;;;;;;;5.10;95.10;;;;;;5070166;28;20033;-87
2023/01/05 00:37:06;;;;;;;;;;;5.10;95.10;;;;;;5059175;28;20415;-87
2023/01/05 00:39:31;;;;;;;;;;;5.20;95.00;;;;;;5071223;28;20347;-87
2023/01/05 00:41:57;;;;;;;;;;;5.20;94.70;;;;;;5073437;28;19937;-87
2023/01/05 00:44:23;;;;;;;;;;;5.20;94.60;;;;;;5065994;28;20045;-87
2023/01/05 00:46:48;;;;;;;;;;;5.20;94.50;;;;;;5053364;28;19967;-86
2023/01/05 00:49:14;;;;;;;;;;;5.00;94.30;;;;;;5035126;28;19946;-86
2023/01/05 00:51:39;;;;;;;;;;;4.90;94.40;;;;;;5072577;28;19944;-86
2023/01/05 00:54:05;;;;;;;;;;;4.70;94.70;;;;;;5068615;28;20516;-86
2023/01/05 00:56:31;;;;;;;;;;;4.70;94.80;;;;;;5053088;28;20115;-87
2023/01/05 00:58:56;;;;;;;;;;;4.70;95.00;;;;;;5053210;28;20409;-87
2023/01/05 01:01:22;;;;;;;;;;;4.90;95.60;;;;;;5069257;28;19953;-87
2023/01/05 01:03:47;;;;;;;;;;;4.90;95.40;;;;;;5071267;28;19973;-86
2023/01/05 01:06:14;;;;;;;;;;;4.80;95.20;;;;;;5052784;28;19948;-87
2023/01/05 01:08:39;;;;;;;;;;;4.90;95.90;;;;;;5053112;28;19938;-87
2023/01/05 01:11:05;;;;;;;;;;;4.90;95.80;;;;;;5066625;28;20001;-87
2023/01/05 01:13:31;;;;;;;;;;;5.00;95.60;;;;;;5072825;28;19946;-86
2023/01/05 01:15:56;;;;;;;;;;;5.00;95.50;;;;;;5053283;28;19982;-86
2023/01/05 01:18:22;;;;;;;;;;;5.00;95.40;;;;;;5054990;28;20042;-86
2023/01/05 01:20:48;;;;;;;;;;;5.00;95.40;;;;;;5072009;28;19971;-86
2023/01/05 01:23:13;;;;;;;;;;;5.00;95.60;;;;;;5072948;28;20033;-87
2023/01/05 01:25:39;;;;;;;;;;;5.00;95.80;;;;;;5056129;28;19988;-87
2023/01/05 01:28:04;;;;;;;;;;;5.10;96.00;;;;;;5052970;28;19938;-87
2023/01/05 01:30:30;;;;;;;;;;;5.10;95.80;;;;;;5072866;28;19939;-86
2023/01/05 01:32:56;;;;;;;;;;;5.10;95.70;;;;;;5069664;28;19952;-86
2023/01/05 01:35:21;;;;;;;;;;;5.10;95.60;;;;;;5066391;28;20301;-86
2023/01/05 01:37:47;;;;;;;;;;;5.10;95.50;;;;;;5072834;28;19936;-86
2023/01/05 01:40:12;;;;;;;;;;;5.10;95.40;;;;;;5070895;28;19955;-86
2023/01/05 01:42:38;;;;;;;;;;;5.10;95.40;;;;;;5072775;28;19944;-86
2023/01/05 01:45:06;;;;;;;;;;;5.10;95.40;;;;;;5061443;28;19949;-87
2023/01/05 01:47:46;;;;;;;;;;;5.10;95.60;;;;;;5052725;28;19993;-87
2023/01/05 01:50:14;;;;;;;;;;;5.20;95.70;;;;;;5055384;28;20579;-87
2023/01/05 01:52:40;;;;;;;;;;;5.20;95.90;;;;;;5057220;28;19968;-86
2023/01/05 01:55:06;;;;;;;;;;;5.30;95.90;;;;;;5072583;28;19937;-87
2023/01/05 01:57:32;;;;;;;;;;;5.40;95.90;;;;;;5072566;28;20428;-86
2023/01/05 01:59:59;;;;;;;;;;;5.40;96.10;;;;;;5070758;28;20456;-87
2023/01/05 02:02:26;;;;;;;;;;;5.50;96.10;;;;;;5069892;28;21588;-86
2023/01/05 02:04:53;;;;;;;;;;;5.60;96.00;;;;;;5052216;28;19956;-87
2023/01/05 02:07:18;;;;;;;;;;;5.60;96.00;;;;;;5052500;28;19973;-86
2023/01/05 02:09:44;;;;;;;;;;;5.60;96.00;;;;;;5065125;28;19984;-87
2023/01/05 02:12:16;;;;;;;;;;;5.70;96.10;;;;;;5072073;28;20454;-86
2023/01/05 02:14:47;;;;;;;;;;;5.70;96.10;;;;;;5034620;28;20000;-86
2023/01/05 02:17:27;;;;;;;;;;;5.70;96.00;;;;;;5052936;28;19973;-86
2023/01/05 02:20:02;;;;;;;;;;;5.60;95.90;;;;;;5052019;28;19990;-86
2023/01/05 02:22:42;;;;;;;;;;;5.50;95.80;;;;;;5054454;28;19952;-86
2023/01/05 02:25:20;;;;;;;;;;;5.50;96.20;;;;;;5072159;28;19949;-86
2023/01/05 02:27:48;;;;;;;;;;;5.70;96.30;;;;;;5072995;28;19977;-86
2023/01/05 02:30:25;;;;;;;;;;;5.60;96.30;;;;;;5075894;28;19983;-86
2023/01/05 02:33:10;;;;;;;;;;;5.60;96.40;;;;;;5070402;28;20445;-86
2023/01/05 02:35:55;;;;;;;;;;;5.60;96.60;;;;;;5055342;28;20406;-86
2023/01/05 02:38:41;;;;;;;;;;;5.60;96.70;;;;;;5055197;28;19954;-86
2023/01/05 02:41:18;;;;;;;;;;;5.60;96.80;;;;;;5055763;28;19953;-86
2023/01/05 02:43:44;;;;;;;;;;;5.60;97.00;;;;;;5055584;28;19956;-87
2023/01/05 02:46:09;;;;;;;;;;;5.60;97.10;;;;;;5074466;28;19946;-86
2023/01/05 02:48:35;;;;;;;;;;;5.70;97.20;;;;;;5075567;28;19944;-87
2023/01/05 02:51:04;;;;;;;;;;;5.70;97.30;;;;;;5058138;28;19951;-87
2023/01/05 02:53:31;;;;;;;;;;;5.70;97.30;;;;;;5065376;28;19944;-87
2023/01/05 02:56:09;;;;;;;;;;;5.80;97.40;;;;;;5073565;28;19961;-87
2023/01/05 02:58:45;;;;;;;;;;;5.80;97.50;;;;;;5075372;28;19946;-86
2023/01/05 03:01:22;;;;;;;;;;;5.80;97.50;;;;;;5075366;28;19949;-87
2023/01/05 03:03:50;;;;;;;;;;;5.80;97.50;;;;;;5062355;28;19950;-87
2023/01/05 03:06:19;;;;;;;;;;;5.90;97.70;;;;;;5070613;28;19948;-87
2023/01/05 03:08:50;;;;;;;;;;;5.90;97.70;;;;;;5057207;28;19946;-87
2023/01/05 03:14:00;;;;;;;;;;;6.00;97.70;;;;;;5059509;28;20036;-86
2023/01/05 03:16:30;;;;;;;;;;;6.00;97.70;;;;;;5061678;23;20072;-87
2023/01/05 03:35:38;;;;;;;;;;;6.10;97.80;;;;;;5052393;28;19997;-87
2023/01/05 03:38:13;;;;;;;;;;;6.20;97.80;;;;;;5054607;28;19943;-87
2023/01/05 03:40:39;;;;;;;;;;;6.20;97.80;;;;;;5052682;28;19946;-87
2023/01/05 03:43:06;;;;;;;;;;;6.20;97.80;;;;;;5054596;28;20024;-86
2023/01/05 03:45:42;;;;;;;;;;;6.30;97.80;;;;;;5054258;28;19948;-87
2023/01/05 03:48:07;;;;;;;;;;;6.20;97.70;;;;;;5054434;28;19943;-87
2023/01/05 03:50:33;;;;;;;;;;;6.20;97.70;;;;;;5051872;28;19944;-87
2023/01/05 03:52:59;;;;;;;;;;;6.20;97.70;;;;;;5054335;28;20003;-87
2023/01/05 03:55:24;;;;;;;;;;;6.20;97.70;;;;;;5054132;28;19942;-87
2023/01/05 03:57:50;;;;;;;;;;;6.20;97.70;;;;;;5054254;28;20023;-86
2023/01/05 04:00:16;;;;;;;;;;;6.30;97.70;;;;;;5046823;28;19974;-87
2023/01/05 04:02:41;;;;;;;;;;;6.30;97.70;;;;;;5054170;28;19937;-87
2023/01/05 04:05:07;;;;;;;;;;;6.20;97.70;;;;;;5050048;28;19945;-87
2023/01/05 04:07:32;;;;;;;;;;;6.30;97.70;;;;;;5051675;28;20491;-87
2023/01/05 04:10:00;;;;;;;;;;;6.20;97.70;;;;;;5033511;28;19954;-87
2023/01/05 04:12:25;;;;;;;;;;;6.30;97.80;;;;;;5053981;28;20398;-87
2023/01/05 04:14:51;;;;;;;;;;;6.30;97.80;;;;;;5053805;28;19944;-87
2023/01/05 04:17:16;;;;;;;;;;;6.30;97.80;;;;;;5053787;28;19970;-87
2023/01/05 04:19:42;;;;;;;;;;;6.40;97.80;;;;;;5032408;28;20051;-86
2023/01/05 04:22:07;;;;;;;;;;;6.40;97.80;;;;;;5048623;28;19950;-86
2023/01/05 04:24:33;;;;;;;;;;;6.40;97.80;;;;;;5053795;28;20011;-87
2023/01/05 04:26:58;;;;;;;;;;;6.40;97.80;;;;;;5053718;28;19936;-87
2023/01/05 04:29:24;;;;;;;;;;;6.40;97.80;;;;;;5036284;28;20062;-87
2023/01/05 04:31:49;;;;;;;;;;;6.40;97.80;;;;;;5046002;28;19949;-86
2023/01/05 04:34:15;;;;;;;;;;;6.40;97.80;;;;;;5053357;28;19953;-87
2023/01/05 04:36:41;;;;;;;;;;;6.40;97.80;;;;;;5050245;28;19955;-87
2023/01/05 04:39:06;;;;;;;;;;;6.30;97.70;;;;;;5038911;28;19951;-87
2023/01/05 04:41:32;;;;;;;;;;;6.30;97.60;;;;;;5046954;28;19950;-87
2023/01/05 04:43:57;;;;;;;;;;;6.30;97.60;;;;;;5053456;28;19963;-86
2023/01/05 04:46:23;;;;;;;;;;;6.30;97.60;;;;;;5050416;28;19941;-86
2023/01/05 04:48:48;;;;;;;;;;;6.20;97.60;;;;;;5041136;28;19955;-86
2023/01/05 04:51:14;;;;;;;;;;;6.30;97.60;;;;;;5035712;28;19941;-86
2023/01/05 04:53:39;;;;;;;;;;;6.20;97.60;;;;;;5053210;28;20012;-87
2023/01/05 04:56:05;;;;;;;;;;;6.20;97.60;;;;;;5053065;28;20423;-87
2023/01/05 04:58:30;;;;;;;;;;;6.20;97.50;;;;;;5041980;28;19936;-87
2023/01/05 05:00:56;;;;;;;;;;;6.10;97.40;;;;;;5033148;28;19949;-86
2023/01/05 05:03:21;;;;;;;;;;;6.00;97.40;;;;;;5035050;28;20019;-86
2023/01/05 05:05:47;;;;;;;;;;;6.00;97.30;;;;;;5047062;28;20348;-86
2023/01/05 05:08:13;;;;;;;;;;;5.90;97.30;;;;;;5045598;28;20342;-86
2023/01/05 05:10:38;;;;;;;;;;;5.90;97.30;;;;;;5033143;28;19939;-87
2023/01/05 05:13:04;;;;;;;;;;;5.80;97.30;;;;;;5031670;28;21817;-86
2023/01/05 05:15:29;;;;;;;;;;;5.80;97.40;;;;;;5052771;28;20299;-86
2023/01/05 05:17:55;;;;;;;;;;;5.70;97.40;;;;;;5049341;28;20312;-86
2023/01/05 05:20:20;;;;;;;;;;;5.70;97.40;;;;;;5033090;28;20290;-86
2023/01/05 05:22:46;;;;;;;;;;;5.60;97.30;;;;;;5032358;28;20337;-86
2023/01/05 05:25:11;;;;;;;;;;;5.40;96.90;;;;;;5050416;28;20327;-86
2023/01/05 05:27:37;;;;;;;;;;;5.40;97.30;;;;;;5035241;28;20380;-86
2023/01/05 05:30:03;;;;;;;;;;;5.40;97.30;;;;;;5032949;28;19947;-87
2023/01/05 05:32:29;;;;;;;;;;;5.40;97.30;;;;;;5032875;28;19943;-86
2023/01/05 05:34:54;;;;;;;;;;;5.40;97.20;;;;;;5032740;28;19938;-86
2023/01/05 05:37:20;;;;;;;;;;;5.40;97.20;;;;;;5041590;28;20318;-86
2023/01/05 05:39:45;;;;;;;;;;;5.30;97.20;;;;;;5034493;28;20329;-86
2023/01/05 05:42:11;;;;;;;;;;;5.30;97.20;;;;;;5032797;28;20376;-86
2023/01/05 05:44:36;;;;;;;;;;;5.30;97.10;;;;;;5015132;28;20378;-86
2023/01/05 05:47:02;;;;;;;;;;;5.20;97.10;;;;;;5039919;28;19961;-86
2023/01/05 05:49:27;;;;;;;;;;;5.30;97.10;;;;;;5036991;28;20290;-86
2023/01/05 05:51:53;;;;;;;;;;;5.30;97.00;;;;;;5035627;28;19945;-86
2023/01/05 05:54:18;;;;;;;;;;;5.20;97.00;;;;;;5034739;28;19966;-86
2023/01/05 05:56:44;;;;;;;;;;;5.30;97.00;;;;;;5049562;28;20311;-86
2023/01/05 05:59:09;;;;;;;;;;;5.40;97.10;;;;;;5039554;28;19945;-86
2023/01/05 06:01:35;;;;;;;;;;;5.20;97.00;;;;;;5034660;28;19954;-86
2023/01/05 06:04:00;;;;;;;;;;;5.30;97.10;;;;;;5036530;28;20104;-86
2023/01/05 06:06:26;;;;;;;;;;;5.30;97.20;;;;;;5038645;28;20418;-86
2023/01/05 06:08:51;;;;;;;;;;;5.30;97.20;;;;;;5046115;28;19947;-86
2023/01/05 06:11:17;;;;;;;;;;;5.30;97.20;;;;;;5039780;28;19942;-86
2023/01/05 06:13:42;;;;;;;;;;;5.20;97.20;;;;;;5025720;28;20347;-87
2023/01/05 06:16:08;;;;;;;;;;;5.10;97.20;;;;;;5040814;28;20031;-87
2023/01/05 06:18:34;;;;;;;;;;;5.10;97.20;;;;;;5047946;28;19952;-87
2023/01/05 06:20:59;;;;;;;;;;;5.00;97.40;;;;;;5038028;28;20307;-87
2023/01/05 06:23:25;;;;;;;;;;;5.00;97.40;;;;;;5039011;28;20394;-87
2023/01/05 06:25:50;;;;;;;;;;;4.90;97.20;;;;;;5035459;28;20291;-87
2023/01/05 06:28:16;;;;;;;;;;;4.90;97.40;;;;;;5040643;28;20319;-87
2023/01/05 06:30:41;;;;;;;;;;;4.90;97.50;;;;;;5034977;28;20316;-87
2023/01/05 06:33:07;;;;;;;;;;;4.90;97.40;;;;;;5032007;28;19949;-87
2023/01/05 06:35:32;;;;;;;;;;;4.90;97.50;;;;;;5036589;28;20315;-87
2023/01/05 06:37:58;;;;;;;;;;;5.00;97.50;;;;;;5035082;28;20344;-87
2023/01/05 06:40:23;;;;;;;;;;;4.90;97.40;;;;;;5035139;28;20352;-87
2023/01/05 06:42:49;;;;;;;;;;;4.80;97.40;;;;;;5040002;28;19942;-87
2023/01/05 06:45:15;;;;;;;;;;;4.90;97.50;;;;;;5035329;28;19954;-87
2023/01/05 06:47:41;;;;;;;;;;;4.90;97.60;;;;;;5033045;28;19955;-87
2023/01/05 06:50:07;;;;;;;;;;;5.10;97.70;;;;;;5032707;28;19968;-87
2023/01/05 06:52:35;;;;;;;;;;;5.20;97.60;;;;;;5040441;28;20323;-87
2023/01/05 06:55:04;;;;;;;;;;;5.20;97.50;;;;;;5035081;28;20004;-87
2023/01/05 06:57:30;;;;;;;;;;;5.20;97.50;;;;;;5025727;28;19986;-87
2023/01/05 06:59:55;;;;;;;;;;;5.20;97.40;;;;;;5048611;28;20412;-87
2023/01/05 07:02:21;;;;;;;;;;;5.30;97.30;;;;;;5040243;28;20442;-87
2023/01/05 07:04:46;;;;;;;;;;;5.30;97.20;;;;;;5041346;28;20315;-87
2023/01/05 07:07:12;;;;;;;;;;;5.30;97.20;;;;;;5045345;28;19947;-87
2023/01/05 07:09:38;;;;;;;;;;;5.30;97.10;;;;;;5036355;28;19944;-87
2023/01/05 07:12:03;;;;;;;;;;;5.30;97.10;;;;;;5036809;28;19946;-87
2023/01/05 07:14:29;;;;;;;;;;;5.30;97.20;;;;;;5036543;28;20003;-87
2023/01/05 07:16:54;;;;;;;;;;;5.50;97.10;;;;;;5037313;28;20476;-87
2023/01/05 07:19:20;;;;;;;;;;;5.60;97.10;;;;;;5034324;28;20351;-87
2023/01/05 07:21:45;;;;;;;;;;;5.60;97.00;;;;;;5040566;28;20430;-87
2023/01/05 07:24:11;;;;;;;;;;;5.60;96.80;;;;;;5042167;28;19943;-87
2023/01/05 07:26:36;;;;;;;;;;;5.50;96.60;;;;;;5039527;28;20478;-87
2023/01/05 07:29:02;;;;;;;;;;;5.40;96.50;;;;;;5040943;28;19953;-87
2023/01/05 07:31:27;;;;;;;;;;;5.40;96.40;;;;;;5043413;28;19953;-87
2023/01/05 07:33:53;;;;;;;;;;;5.40;96.40;;;;;;5038021;28;19946;-87
2023/01/05 07:36:19;;;;;;;;;;;5.40;96.40;;;;;;5036063;28;19945;-87
2023/01/05 07:38:44;;;;;;;;;;;5.40;96.30;;;;;;5038944;28;19950;-87
2023/01/05 07:41:10;;;;;;;;;;;5.50;96.50;;;;;;5034332;28;19947;-87
2023/01/05 07:43:36;;;;;;;;;;;5.90;96.50;;;;;;5037118;28;19947;-87
2023/01/05 07:46:03;;;;;;;;;;;6.00;96.30;;;;;;5033586;28;20385;-87
2023/01/05 07:48:29;;;;;;;;;;;5.90;96.30;;;;;;5048036;28;20071;-87
2023/01/05 07:51:01;;;;;;;;;;;6.00;96.40;;;;;;5045514;28;20420;-87
2023/01/05 07:53:28;;;;;;;;;;;6.20;96.30;;;;;;5032074;28;19961;-87
2023/01/05 07:55:54;;;;;;;;;;;6.10;95.50;;;;;;5031385;28;19964;-87
2023/01/05 07:58:19;;;;;;;;;;;6.00;95.00;;;;;;5033649;28;19980;-86
2023/01/05 08:00:45;;;;;;;;;;;5.90;94.80;;;;;;5034350;28;20363;-87
2023/01/05 08:03:11;;;;;;;;;;;5.70;94.70;;;;;;5034656;28;20322;-87
2023/01/05 08:05:36;;;;;;;;;;;5.70;94.70;;;;;;5032851;28;19950;-87
2023/01/05 08:08:02;;;;;;;;;;;5.40;95.30;;;;;;5051310;28;19956;-87
2023/01/05 08:10:27;;;;;;;;;;;5.50;95.70;;;;;;5028138;28;20053;-87
2023/01/05 08:15:37;;;;;;;;;;;5.60;96.10;;;;;;5022994;28;19982;-87
2023/01/05 08:18:03;;;;;;;;;;;5.70;96.20;;;;;;5033295;28;19947;-87
2023/01/05 08:20:28;;;;;;;;;;;6.00;96.10;;;;;;5037127;28;20021;-87
2023/01/05 08:22:54;;;;;;;;;;;6.00;95.80;;;;;;5038892;28;20403;-87
2023/01/05 08:25:19;;;;;;;;;;;6.00;95.60;;;;;;5050080;28;20837;-87
2023/01/05 08:27:45;;;;;;;;;;;5.90;95.10;;;;;;5025736;28;19941;-86
2023/01/05 08:30:11;;;;;;;;;;;5.90;94.90;;;;;;5032284;28;19964;-87
2023/01/05 08:32:37;;;;;;;;;;;5.90;94.80;;;;;;5033208;28;20331;-87
2023/01/05 08:35:03;;;;;;;;;;;5.90;94.80;;;;;;5036804;28;19973;-87
2023/01/05 08:37:28;;;;;;;;;;;6.00;94.80;;;;;;5034402;28;20507;-87
2023/01/05 08:39:54;;;;;;;;;;;6.00;94.90;;;;;;5035030;28;19944;-87
2023/01/05 08:42:19;;;;;;;;;;;6.00;95.20;;;;;;5012683;28;19946;-87
2023/01/05 08:44:45;;;;;;;;;;;6.10;95.40;;;;;;5032545;28;19992;-86
2023/01/05 08:47:10;;;;;;;;;;;6.20;95.60;;;;;;5033719;28;20019;-86
2023/01/05 08:49:36;;;;;;;;;;;6.30;95.60;;;;;;5035524;28;20534;-86
2023/01/05 08:52:02;;;;;;;;;;;6.40;95.50;;;;;;5032665;28;19940;-86
2023/01/05 08:54:28;;;;;;;;;;;6.40;95.40;;;;;;5031963;28;19953;-87
2023/01/05 08:56:54;;;;;;;;;;;6.40;95.30;;;;;;5041080;28;20348;-86
2023/01/05 08:59:19;;;;;;;;;;;6.60;95.20;;;;;;5028672;28;19953;-87
2023/01/05 09:01:45;;;;;;;;;;;6.70;94.80;;;;;;5027958;28;19949;-87
2023/01/05 09:04:10;;;;;;;;;;;6.80;94.70;;;;;;5030674;28;19959;-87
2023/01/05 09:06:36;;;;;;;;;;;6.90;94.50;;;;;;5034092;28;20394;-87
2023/01/05 09:09:01;;;;;;;;;;;7.10;94.40;;;;;;5034366;28;19967;-87
2023/01/05 09:11:27;;;;;;;;;;;7.20;94.00;;;;;;5029960;28;20414;-87
2023/01/05 09:13:57;;;;;;;;;;;7.10;94.20;;;;;;5037096;28;19952;-87
2023/01/05 09:16:24;;;;;;;;;;;7.20;94.50;;;;;;5041736;28;19974;-87
2023/01/05 09:18:49;;;;;;;;;;;7.20;94.40;;;;;;5037179;28;19949;-87
2023/01/05 09:21:15;;;;;;;;;;;7.20;94.50;;;;;;5040056;28;20338;-87
2023/01/05 09:23:41;;;;;;;;;;;7.20;94.70;;;;;;5031079;28;19946;-86
2023/01/05 09:26:07;;;;;;;;;;;7.20;94.70;;;;;;5030262;28;20374;-86
2023/01/05 09:28:35;;;;;;;;;;;7.30;94.80;;;;;;5039187;28;20027;-86
2023/01/05 09:31:11;;;;;;;;;;;7.40;94.40;;;;;;5034257;28;20361;-86
2023/01/05 09:33:36;;;;;;;;;;;7.40;94.00;;;;;;5034304;28;20317;-86
2023/01/05 09:36:02;;;;;;;;;;;7.50;94.10;;;;;;5035879;28;19968;-86
2023/01/05 09:38:28;;;;;;;;;;;7.50;94.10;;;;;;5036713;28;20391;-86
2023/01/05 09:40:56;;;;;;;;;;;7.60;94.10;;;;;;5035380;28;19959;-86
2023/01/05 09:43:24;;;;;;;;;;;7.70;94.30;;;;;;5038012;28;19943;-86
2023/01/05 09:45:49;;;;;;;;;;;7.70;94.10;;;;;;5034196;28;20037;-86
2023/01/05 09:48:16;;;;;;;;;;;7.70;94.60;;;;;;5038880;28;20033;-86
2023/01/05 09:50:42;;;;;;;;;;;7.80;94.80;;;;;;5046568;28;19950;-86
2023/01/05 09:53:08;;;;;;;;;;;7.90;94.90;;;;;;5047777;28;19962;-86
2023/01/05 09:55:35;;;;;;;;;;;7.90;94.70;;;;;;5052673;28;19944;-86
2023/01/05 09:58:11;;;;;;;;;;;7.90;94.60;;;;;;5036694;28;19960;-86
2023/01/05 10:00:39;;;;;;;;;;;7.80;94.40;;;;;;5044450;28;20038;-86
2023/01/05 10:03:10;;;;;;;;;;;8.00;94.50;;;;;;5034294;28;19950;-86
2023/01/05 10:05:37;;;;;;;;;;;8.10;93.90;;;;;;5034267;28;19946;-86
2023/01/05 10:08:06;;;;;;;;;;;8.20;93.50;;;;;;5043390;28;19954;-86
2023/01/05 10:10:45;;;;;;;;;;;8.10;93.80;;;;;;5044174;28;20467;-86
2023/01/05 10:13:20;;;;;;;;;;;8.30;93.60;;;;;;5041376;28;19942;-86
2023/01/05 10:15:48;;;;;;;;;;;8.30;93.40;;;;;;5044913;28;20002;-86
2023/01/05 10:18:16;;;;;;;;;;;8.40;93.10;;;;;;5030423;28;20311;-87
2023/01/05 10:20:41;;;;;;;;;;;8.50;93.00;;;;;;5033793;28;19943;-87
2023/01/05 10:23:10;;;;;;;;;;;8.70;92.40;;;;;;5039453;28;19951;-87
2023/01/05 10:25:35;;;;;;;;;;;8.90;92.40;;;;;;5035988;28;20388;-87
2023/01/05 10:28:19;;;;;;;;;;;9.20;92.00;;;;;;5045803;28;20028;-87
2023/01/05 10:30:51;;;;;;;;;;;9.50;91.40;;;;;;5038881;28;20351;-87
2023/01/05 10:33:37;;;;;;;;;;;9.70;90.80;;;;;;5032894;28;20464;-87
2023/01/05 10:36:35;;;;;;;;;;;9.70;90.20;;;;;;5041537;28;19976;-87
2023/01/05 10:39:09;;;;;;;;;;;9.60;90.40;;;;;;4964641;28;19956;-86
2023/01/05 10:41:44;;;;;;;;;;;9.50;90.30;;;;;;5029932;28;19942;-87
2023/01/05 10:44:12;;;;;;;;;;;9.50;90.80;;;;;;5035621;28;20393;-86
2023/01/05 10:46:40;;;;;;;;;;;9.50;90.70;;;;;;5034861;28;20032;-86
2023/01/05 10:49:06;;;;;;;;;;;9.60;90.40;;;;;;5040681;28;19949;-87
2023/01/05 10:51:32;;;;;;;;;;;9.60;90.30;;;;;;5044061;28;19946;-86
2023/01/05 10:53:58;;;;;;;;;;;9.70;90.30;;;;;;5055401;28;19961;-86
2023/01/05 10:56:27;;;;;;;;;;;9.60;90.70;;;;;;5037476;28;20395;-87
2023/01/05 10:59:07;;;;;;;;;;;9.60;90.60;;;;;;5028860;28;19952;-87
2023/01/05 11:01:34;;;;;;;;;;;9.60;90.80;;;;;;5041491;28;20040;-87
2023/01/05 11:04:11;;;;;;;;;;;9.60;90.30;;;;;;5033490;28;19945;-86
2023/01/05 11:06:37;;;;;;;;;;;9.70;90.40;;;;;;5042329;28;19947;-87
2023/01/05 11:09:05;;;;;;;;;;;9.90;90.70;;;;;;5055286;28;19942;-87
2023/01/05 11:11:31;;;;;;;;;;;10.50;89.80;;;;;;5037284;28;19945;-86
2023/01/05 11:13:57;;;;;;;;;;;10.60;88.10;;;;;;5034661;28;19957;-86
2023/01/05 11:16:26;;;;;;;;;;;10.60;88.20;;;;;;5012354;22;20463;-87
2023/01/05 11:18:55;;;;;;;;;;;10.50;88.10;;;;;;4973852;28;19950;-87
2023/01/05 11:21:47;;;;;;;;;;;10.60;88.00;;;;;;4996861;28;19945;-87
2023/01/05 11:24:30;;;;;;;;;;;10.60;87.40;;;;;;4978573;28;19949;-86
2023/01/05 11:27:20;;;;;;;;;;;10.60;87.40;;;;;;4995203;28;20514;-86
2023/01/05 11:30:06;;;;;;;;;;;10.60;88.00;;;;;;4993408;28;19991;-86
2023/01/05 11:32:32;;;;;;;;;;;10.80;88.00;;;;;;4989881;28;20462;-86
2023/01/05 11:34:57;;;;;;;;;;;10.80;87.30;;;;;;4992717;28;19950;-86
2023/01/05 11:37:25;;;;;;;;;;;10.80;87.10;;;;;;4993144;28;20495;-87
2023/01/05 11:39:50;;;;;;;;;;;10.80;87.40;;;;;;4994912;28;19943;-87
2023/01/05 11:42:17;;;;;;;;;;;10.90;87.30;;;;;;4994820;28;20028;-87
2023/01/05 11:44:45;;;;;;;;;;;11.00;87.10;;;;;;4995348;28;19941;-87
2023/01/05 11:47:17;;;;;;;;;;;11.20;86.60;;;;;;4995318;28;20001;-87
2023/01/05 11:49:43;;;;;;;;;;;11.40;86.10;;;;;;4995174;28;19951;-87
2023/01/05 11:52:25;;;;;;;;;;;11.60;86.10;;;;;;4992897;28;20550;-87
2023/01/05 11:54:50;;;;;;;;;;;11.90;84.70;;;;;;4995049;28;20085;-86
2023/01/05 11:57:17;;;;;;;;;;;12.00;83.10;;;;;;4985648;28;19961;-86
2023/01/05 11:59:44;;;;;;;;;;;12.40;82.80;;;;;;4974561;28;19939;-87
2023/01/05 12:02:24;;;;;;;;;;;12.60;80.50;;;;;;4982143;28;19953;-87
2023/01/05 12:04:50;;;;;;;;;;;12.90;80.20;;;;;;4989606;28;19982;-86
2023/01/05 12:07:34;;;;;;;;;;;13.20;79.60;;;;;;4978835;28;20027;-87
2023/01/05 12:10:09;;;;;;;;;;;13.40;79.30;;;;;;4975437;28;19992;-87
2023/01/05 12:12:34;;;;;;;;;;;13.90;77.70;;;;;;4973859;28;19978;-87
2023/01/05 12:15:06;;;;;;;;;;;14.00;75.90;;;;;;4979279;28;20008;-87
2023/01/05 12:17:50;;;;;;;;;;;13.80;76.70;;;;;;4975397;28;20058;-86
2023/01/05 12:20:34;;;;;;;;;;;13.30;77.30;;;;;;4979730;28;19951;-86
2023/01/05 12:23:12;;;;;;;;;;;12.90;78.70;;;;;;4986465;28;19945;-87
2023/01/05 12:25:57;;;;;;;;;;;12.70;79.50;;;;;;4963945;28;19956;-86
2023/01/05 12:28:32;;;;;;;;;;;12.50;80.30;;;;;;4994023;28;19980;-86
2023/01/05 12:30:57;;;;;;;;;;;12.40;81.10;;;;;;4992187;28;19953;-87
2023/01/05 12:33:29;;;;;;;;;;;12.40;80.90;;;;;;4992236;28;20048;-86
2023/01/05 12:36:00;;;;;;;;;;;12.30;80.70;;;;;;4987335;28;19985;-86
2023/01/05 12:38:34;;;;;;;;;;;12.20;80.90;;;;;;4994327;28;19945;-86
2023/01/05 12:41:18;;;;;;;;;;;12.10;81.40;;;;;;4989972;28;19945;-86
2023/01/05 12:43:44;;;;;;;;;;;12.10;81.80;;;;;;4981985;28;20046;-87
2023/01/05 12:46:42;;;;;;;;;;;12.40;82.00;;;;;;4980767;28;20030;-87
2023/01/05 12:49:17;;;;;;;;;;;12.70;80.70;;;;;;4932043;28;19957;-86
2023/01/05 12:52:09;;;;;;;;;;;13.10;79.10;;;;;;4979948;28;19949;-87
2023/01/05 12:54:35;;;;;;;;;;;13.40;79.40;;;;;;4984711;28;19981;-87
2023/01/05 12:57:04;;;;;;;;;;;14.40;77.30;;;;;;4979502;28;20347;-87
2023/01/05 12:59:32;;;;;;;;;;;15.20;73.30;;;;;;4975132;28;20404;-87
2023/01/05 13:02:06;;;;;;;;;;;15.90;70.60;;;;;;4990692;28;19955;-87
2023/01/05 13:04:38;;;;;;;;;;;15.80;68.90;;;;;;4986577;28;19970;-87
2023/01/05 13:07:06;;;;;;;;;;;15.40;69.90;;;;;;4982709;28;20045;-87
2023/01/05 13:09:33;;;;;;;;;;;15.30;69.10;;;;;;4978944;28;20399;-87
2023/01/05 13:12:02;;;;;;;;;;;15.30;70.20;;;;;;4979287;28;19952;-87
2023/01/05 13:14:29;;;;;;;;;;;15.20;70.70;;;;;;4976166;28;20042;-87
2023/01/05 13:16:55;;;;;;;;;;;14.90;70.70;;;;;;4977733;28;20461;-87
2023/01/05 13:19:23;;;;;;;;;;;14.70;71.60;;;;;;4975942;28;20024;-86
2023/01/05 13:21:50;;;;;;;;;;;14.60;72.10;;;;;;4977017;28;19950;-87
2023/01/05 13:24:32;;;;;;;;;;;14.90;71.40;;;;;;4972256;28;19952;-87
2023/01/05 13:26:58;;;;;;;;;;;15.20;71.00;;;;;;4972218;28;19945;-87
2023/01/05 13:29:26;;;;;;;;;;;15.80;69.50;;;;;;4978635;28;20026;-87
2023/01/05 13:32:00;;;;;;;;;;;16.10;68.00;;;;;;4973953;28;20430;-87
2023/01/05 13:34:26;;;;;;;;;;;16.60;65.70;;;;;;4973188;28;19943;-87
2023/01/05 13:37:00;;;;;;;;;;;16.80;65.30;;;;;;4972706;28;19974;-87
2023/01/05 13:39:38;;;;;;;;;;;17.10;63.20;;;;;;4973573;28;19947;-87
2023/01/05 13:42:03;;;;;;;;;;;16.60;63.90;;;;;;4970530;28;19949;-87
2023/01/05 13:44:38;;;;;;;;;;;15.80;66.40;;;;;;4973248;28;20003;-87
2023/01/05 13:47:22;;;;;;;;;;;15.20;68.10;;;;;;4962775;28;19958;-87
2023/01/05 13:49:48;;;;;;;;;;;14.90;69.70;;;;;;4955906;28;20225;-87
2023/01/05 13:52:21;;;;;;;;;;;14.40;71.80;;;;;;4973815;28;20625;-87
2023/01/05 13:54:49;;;;;;;;;;;14.00;71.90;;;;;;4974746;28;20366;-86
2023/01/05 13:57:18;;;;;;;;;;;13.70;73.00;;;;;;4973187;28;20004;-86
2023/01/05 13:59:47;;;;;;;;;;;13.40;73.50;;;;;;4972215;28;19956;-86
2023/01/05 14:02:31;;;;;;;;;;;13.10;74.80;;;;;;4956763;28;20341;-86
2023/01/05 14:04:57;;;;;;;;;;;13.00;75.60;;;;;;4975666;28;20432;-87
2023/01/05 14:07:23;;;;;;;;;;;12.90;76.30;;;;;;4979039;28;19945;-87
2023/01/05 14:09:50;;;;;;;;;;;13.10;75.90;;;;;;4981993;28;19972;-87
2023/01/05 14:12:16;;;;;;;;;;;13.10;75.80;;;;;;4976163;28;19951;-87
2023/01/05 14:15:00;;;;;;;;;;;13.10;76.30;;;;;;4973991;28;19950;-87
2023/01/05 14:17:44;;;;;;;;;;;12.90;77.00;;;;;;4973236;28;19965;-87
2023/01/05 14:20:28;;;;;;;;;;;12.80;77.10;;;;;;4975043;28;19950;-87
2023/01/05 14:22:54;;;;;;;;;;;12.70;77.70;;;;;;4972528;28;19952;-87
2023/01/05 14:25:38;;;;;;;;;;;12.60;78.70;;;;;;4984690;28;19945;-87
2023/01/05 14:28:17;;;;;;;;;;;12.50;79.20;;;;;;4978773;28;20036;-87
2023/01/05 14:30:42;;;;;;;;;;;12.70;78.70;;;;;;4979402;28;19945;-86
2023/01/05 14:33:09;;;;;;;;;;;12.50;78.60;;;;;;4988054;28;19957;-87
2023/01/05 14:35:35;;;;;;;;;;;12.30;79.20;;;;;;4977057;28;19999;-87
2023/01/05 14:38:01;;;;;;;;;;;12.00;79.80;;;;;;4984646;28;19954;-87
2023/01/05 14:40:41;;;;;;;;;;;11.80;80.70;;;;;;4965339;28;20025;-86
2023/01/05 14:43:19;;;;;;;;;;;11.70;81.30;;;;;;4966523;28;19944;-86
2023/01/05 14:45:55;;;;;;;;;;;11.70;81.60;;;;;;4977930;28;19948;-86
2023/01/05 14:48:28;;;;;;;;;;;11.70;81.70;;;;;;4983529;28;19951;-87
2023/01/05 14:51:25;;;;;;;;;;;11.70;81.90;;;;;;4978314;28;19946;-87
2023/01/05 14:53:52;;;;;;;;;;;11.70;81.70;;;;;;4958099;28;19956;-87
2023/01/05 14:56:17;;;;;;;;;;;11.50;82.30;;;;;;4983573;28;19968;-87
2023/01/05 14:58:43;;;;;;;;;;;11.50;82.30;;;;;;4978846;28;19948;-87
2023/01/05 15:01:14;;;;;;;;;;;11.50;82.40;;;;;;4981214;28;19971;-87
2023/01/05 15:03:46;;;;;;;;;;;11.60;82.40;;;;;;4976162;28;19950;-87
2023/01/05 15:06:14;;;;;;;;;;;11.70;82.00;;;;;;4978001;28;20364;-87
2023/01/05 15:08:59;;;;;;;;;;;11.90;81.90;;;;;;4975957;28;19943;-87